createdAt,value
2023-03-28T00:01:53.178Z,15889.31
2023-03-28T00:06:00.204Z,15928.16
2023-03-28T00:10:02.017Z,15893.41
2023-03-28T00:14:03.597Z,15881.16
2023-03-28T00:18:10.282Z,15879.09
2023-03-28T00:22:16.144Z,15875.00
2023-03-28T00:26:19.530Z,15887.28
2023-03-28T00:30:21.332Z,15909.78
2023-03-28T00:34:23.237Z,15938.41
2023-03-28T00:38:26.430Z,15926.13
2023-03-28T00:42:28.186Z,15915.91
2023-03-28T00:46:34.341Z,15926.13
2023-03-28T00:50:38.862Z,15891.38
2023-03-28T00:54:42.026Z,15895.47
2023-03-28T00:58:45.881Z,15915.91
2023-03-28T01:02:51.331Z,15907.72
2023-03-28T01:06:56.997Z,15895.47
2023-03-28T01:11:03.371Z,15891.38
2023-03-28T01:15:06.051Z,15901.59
2023-03-28T01:19:17.489Z,15875.00
2023-03-28T01:23:52.876Z,15911.81
2023-03-28T01:28:27.811Z,15862.75
2023-03-28T01:33:10.782Z,15917.94
2023-03-28T01:37:23.927Z,15907.72
2023-03-28T01:41:39.249Z,15887.28
2023-03-28T01:45:48.933Z,15895.47
2023-03-28T01:49:58.529Z,15883.19
2023-03-28T01:54:09.955Z,15899.53
2023-03-28T01:58:17.621Z,15913.84
2023-03-28T02:02:25.624Z,15897.50
2023-03-28T02:06:30.320Z,15893.41
2023-03-28T02:10:33.561Z,15911.81
2023-03-28T02:14:39.031Z,15903.63
2023-03-28T02:18:49.215Z,15899.53
2023-03-28T02:22:54.290Z,15872.97
2023-03-28T02:26:57.976Z,15862.75
2023-03-28T02:31:00.428Z,15891.38
2023-03-28T02:35:06.046Z,15850.47
2023-03-28T02:39:24.878Z,15891.38
2023-03-28T02:43:46.038Z,15881.16
2023-03-28T02:48:01.833Z,15905.69
2023-03-28T02:52:14.342Z,15862.75
2023-03-28T02:56:21.312Z,15875.00
2023-03-28T03:00:25.018Z,15860.69
2023-03-28T03:04:26.894Z,15899.53
2023-03-28T03:08:28.445Z,15891.38
2023-03-28T03:12:30.038Z,15872.97
2023-03-28T03:16:32.946Z,15872.97
2023-03-28T03:20:34.699Z,15875.00
2023-03-28T03:24:37.572Z,15858.66
2023-03-28T03:28:39.392Z,15887.28
2023-03-28T03:32:42.421Z,15907.72
2023-03-28T03:36:44.199Z,15866.84
2023-03-28T03:40:46.080Z,15862.75
2023-03-28T03:44:47.793Z,15901.59
2023-03-28T03:48:54.221Z,15899.53
2023-03-28T03:52:58.368Z,15866.84
2023-03-28T03:57:01.433Z,15887.28
2023-03-28T04:01:04.288Z,15879.09
2023-03-28T04:05:08.613Z,15870.91
2023-03-28T04:09:10.207Z,15887.28
2023-03-28T04:13:11.779Z,15915.91
2023-03-28T04:17:13.267Z,15885.22
2023-03-28T04:21:17.454Z,15866.84
2023-03-28T04:25:19.253Z,15911.81
2023-03-28T04:29:20.622Z,15895.47
2023-03-28T04:33:22.106Z,15866.84
2023-03-28T04:37:25.021Z,15879.09
2023-03-28T04:41:26.457Z,15866.84
2023-03-28T04:45:29.286Z,15891.38
2023-03-28T04:49:30.954Z,15885.22
2023-03-28T04:53:33.941Z,15895.47
2023-03-28T04:57:35.578Z,15889.31
2023-03-28T05:01:38.565Z,15920.00
2023-03-28T05:05:40.384Z,15891.38
2023-03-28T05:09:43.381Z,15870.91
2023-03-28T05:13:44.986Z,15870.91
2023-03-28T05:17:49.659Z,15875.00
2023-03-28T05:21:51.106Z,15866.84
2023-03-28T05:25:57.338Z,15887.28
2023-03-28T05:29:59.069Z,15879.09
2023-03-28T05:34:00.428Z,15891.38
2023-03-28T05:38:02.286Z,15846.38
2023-03-28T05:42:05.699Z,15854.56
2023-03-28T05:46:07.504Z,15860.69
2023-03-28T05:50:10.342Z,15842.28
2023-03-28T05:54:11.903Z,15887.28
2023-03-28T05:58:14.795Z,15842.28
2023-03-28T06:02:18.637Z,15852.53
2023-03-28T06:06:20.058Z,15854.56
2023-03-28T06:10:21.731Z,15875.00
2023-03-28T06:14:24.840Z,15842.28
2023-03-28T06:18:26.638Z,15866.84
2023-03-28T06:22:28.050Z,15850.47
2023-03-28T06:26:29.440Z,15850.47
2023-03-28T06:30:32.393Z,15854.56
2023-03-28T06:34:33.757Z,15860.69
2023-03-28T06:38:37.860Z,15852.53
2023-03-28T06:42:39.597Z,15856.59
2023-03-28T06:46:43.946Z,15854.56
2023-03-28T06:50:46.106Z,15864.78
2023-03-28T06:54:48.990Z,15891.38
2023-03-28T06:58:52.632Z,15909.78
2023-03-28T07:02:55.987Z,16079.47
2023-03-28T07:07:01.195Z,16198.06
2023-03-28T07:11:03.108Z,16304.41
2023-03-28T07:15:06.170Z,16390.28
2023-03-28T07:19:10.367Z,16410.75
2023-03-28T07:23:12.155Z,16510.94
2023-03-28T07:27:16.156Z,16484.34
2023-03-28T07:31:19.930Z,16570.25
2023-03-28T07:35:22.752Z,16549.81
2023-03-28T07:39:24.450Z,16506.84
2023-03-28T07:43:26.107Z,16484.34
2023-03-28T07:47:27.505Z,16535.47
2023-03-28T07:51:30.691Z,16623.41
2023-03-28T07:55:37.146Z,16637.72
2023-03-28T07:59:46.362Z,16707.25
2023-03-28T08:03:48.038Z,16782.94
2023-03-28T08:07:53.427Z,16881.09
2023-03-28T08:11:56.554Z,16885.19
2023-03-28T08:15:58.263Z,16829.97
2023-03-28T08:19:59.988Z,16856.56
2023-03-28T08:24:04.207Z,16858.59
2023-03-28T08:28:05.711Z,16836.09
2023-03-28T08:32:07.151Z,17038.59
2023-03-28T08:36:10.188Z,16815.66
2023-03-28T08:40:17.718Z,16985.41
2023-03-28T08:44:36.919Z,16870.88
2023-03-28T08:48:43.294Z,16909.72
2023-03-28T08:52:46.684Z,16762.47
2023-03-28T08:56:52.403Z,16662.28
2023-03-28T09:00:53.999Z,16463.91
2023-03-28T09:05:11.982Z,16484.34
2023-03-28T09:09:33.700Z,16596.84
2023-03-28T09:13:47.188Z,16566.16
2023-03-28T09:18:02.654Z,16562.06
2023-03-28T09:22:16.686Z,16508.91
2023-03-28T09:26:21.950Z,16529.34
2023-03-28T09:30:28.691Z,16517.06
2023-03-28T09:34:37.597Z,16688.88
2023-03-28T09:38:46.296Z,16737.94
2023-03-28T09:43:08.337Z,16872.91
2023-03-28T09:47:12.376Z,16852.47
2023-03-28T09:51:16.951Z,16854.50
2023-03-28T09:55:21.437Z,16922.00
2023-03-28T09:59:27.690Z,16852.47
2023-03-28T10:03:31.539Z,16838.16
2023-03-28T10:07:41.875Z,16834.06
2023-03-28T10:11:47.776Z,16823.84
2023-03-28T10:15:51.589Z,16913.81
2023-03-28T10:19:59.575Z,16856.56
2023-03-28T10:24:05.544Z,16797.25
2023-03-28T10:28:13.064Z,16795.22
2023-03-28T10:32:24.888Z,16780.88
2023-03-28T10:36:30.223Z,16793.16
2023-03-28T10:40:32.952Z,16856.56
2023-03-28T10:44:35.921Z,16815.66
2023-03-28T10:48:38.300Z,16782.94
2023-03-28T10:52:50.202Z,16733.84
2023-03-28T10:56:57.704Z,16680.69
2023-03-28T11:01:05.037Z,16752.25
2023-03-28T11:05:31.561Z,16674.53
2023-03-28T11:09:41.731Z,16721.59
2023-03-28T11:13:53.205Z,16717.50
2023-03-28T11:18:08.995Z,16680.69
2023-03-28T11:22:21.745Z,16713.41
2023-03-28T11:26:34.821Z,16699.09
2023-03-28T11:30:37.888Z,16664.31
2023-03-28T11:34:45.798Z,16678.63
2023-03-28T11:38:50.281Z,16688.88
2023-03-28T11:42:57.230Z,16680.69
2023-03-28T11:47:08.396Z,16762.47
2023-03-28T11:51:15.911Z,16766.56
2023-03-28T11:55:19.982Z,16926.09
2023-03-28T11:59:27.593Z,17020.19
2023-03-28T12:03:35.471Z,17038.59
2023-03-28T12:07:48.085Z,17081.53
2023-03-28T12:11:53.592Z,17018.13
2023-03-28T12:16:01.960Z,17022.22
2023-03-28T12:20:03.930Z,16962.91
2023-03-28T12:24:14.104Z,17071.31
2023-03-28T12:28:31.769Z,17052.91
2023-03-28T12:32:43.493Z,16934.28
2023-03-28T12:36:53.430Z,17146.97
2023-03-28T12:40:59.696Z,17071.31
2023-03-28T12:45:03.609Z,16999.72
2023-03-28T12:49:12.441Z,16913.81
2023-03-28T12:53:14.763Z,16924.06
2023-03-28T12:57:44.379Z,16864.75
2023-03-28T13:01:48.910Z,16811.56
2023-03-28T13:05:59.940Z,16735.91
2023-03-28T13:10:11.906Z,16737.94
2023-03-28T13:14:35.785Z,16766.56
2023-03-28T13:18:46.763Z,16725.66
2023-03-28T13:22:52.350Z,16791.13
2023-03-28T13:26:55.419Z,16737.94
2023-03-28T13:31:06.227Z,16715.44
2023-03-28T13:35:40.338Z,16803.38
2023-03-28T13:39:50.522Z,16856.56
2023-03-28T13:43:56.163Z,16881.09
2023-03-28T13:48:06.393Z,16901.56
2023-03-28T13:52:17.800Z,16938.38
2023-03-28T13:56:24.729Z,16909.72
2023-03-28T14:00:26.954Z,16915.88
2023-03-28T14:04:31.071Z,16860.66
2023-03-28T14:08:34.889Z,16893.38
2023-03-28T14:12:38.246Z,16854.50
2023-03-28T14:16:42.189Z,16840.19
2023-03-28T14:20:45.069Z,16793.16
2023-03-28T14:24:49.947Z,16762.47
2023-03-28T14:28:57.503Z,16750.22
2023-03-28T14:33:01.889Z,16758.41
2023-03-28T14:37:06.391Z,16803.38
2023-03-28T14:41:17.547Z,16762.47
2023-03-28T14:45:21.525Z,16680.69
2023-03-28T14:49:25.063Z,16697.03
2023-03-28T14:53:29.190Z,16733.84
2023-03-28T14:57:31.409Z,16674.53
2023-03-28T15:01:37.086Z,16637.72
2023-03-28T15:05:42.743Z,16639.78
2023-03-28T15:09:44.105Z,16602.97
2023-03-28T15:13:48.982Z,16611.16
2023-03-28T15:17:53.551Z,16607.06
2023-03-28T15:21:57.938Z,16654.09
2023-03-28T15:26:03.183Z,16617.28
2023-03-28T15:30:12.219Z,16600.94
2023-03-28T15:34:21.789Z,16631.59
2023-03-28T15:38:27.553Z,16647.97
2023-03-28T15:42:39.129Z,16633.66
2023-03-28T15:46:40.606Z,16613.19
2023-03-28T15:50:50.660Z,16617.28
2023-03-28T15:54:55.064Z,16594.78
2023-03-28T15:59:04.168Z,16578.44
2023-03-28T16:03:16.744Z,16549.81
2023-03-28T16:07:20.159Z,16605.00
2023-03-28T16:11:25.887Z,16594.78
2023-03-28T16:15:27.584Z,16629.56
2023-03-28T16:19:29.739Z,16598.88
2023-03-28T16:23:32.836Z,16594.78
2023-03-28T16:27:37.254Z,16623.41
2023-03-28T16:31:39.744Z,16580.47
2023-03-28T16:35:41.858Z,16570.25
2023-03-28T16:39:46.235Z,16586.59
2023-03-28T16:43:48.238Z,16549.81
2023-03-28T16:47:50.001Z,16560.03
2023-03-28T16:51:51.654Z,16549.81
2023-03-28T16:55:59.967Z,16545.72
2023-03-28T17:00:01.907Z,16513.00
2023-03-28T17:04:03.955Z,16525.25
2023-03-28T17:08:06.998Z,16506.84
2023-03-28T17:12:10.244Z,16525.25
2023-03-28T17:16:12.235Z,16500.72
2023-03-28T17:20:14.653Z,16490.50
2023-03-28T17:24:16.303Z,16463.91
2023-03-28T17:28:20.812Z,16480.28
2023-03-28T17:32:22.575Z,16457.78
2023-03-28T17:36:26.600Z,16480.28
2023-03-28T17:40:28.073Z,16439.38
2023-03-28T17:44:31.242Z,16461.88
2023-03-28T17:48:33.395Z,16441.41
2023-03-28T17:52:35.357Z,16484.34
2023-03-28T17:56:36.873Z,16472.09
2023-03-28T18:00:39.976Z,16480.28
2023-03-28T18:04:42.261Z,16476.19
2023-03-28T18:08:43.722Z,16414.84
2023-03-28T18:12:45.420Z,16410.75
2023-03-28T18:16:52.688Z,16418.91
2023-03-28T18:20:56.135Z,16398.47
2023-03-28T18:24:57.830Z,16400.53
2023-03-28T18:28:59.327Z,16472.09
2023-03-28T18:33:02.401Z,16402.56
2023-03-28T18:37:05.862Z,16431.19
2023-03-28T18:41:09.145Z,16361.66
2023-03-28T18:45:12.549Z,16367.81
2023-03-28T18:49:16.999Z,16294.19
2023-03-28T18:53:18.921Z,16247.16
2023-03-28T18:57:22.190Z,16138.78
2023-03-28T19:01:23.761Z,16161.28
2023-03-28T19:05:26.912Z,16073.34
2023-03-28T19:09:28.704Z,16083.56
2023-03-28T19:13:30.216Z,16022.22
2023-03-28T19:17:33.551Z,15985.41
2023-03-28T19:21:36.570Z,15960.88
2023-03-28T19:25:39.128Z,15950.66
2023-03-28T19:29:40.506Z,15924.09
2023-03-28T19:33:43.307Z,15946.56
2023-03-28T19:37:46.389Z,15930.22
2023-03-28T19:41:47.793Z,15926.13
2023-03-28T19:45:51.664Z,15928.16
2023-03-28T19:49:53.797Z,15924.09
2023-03-28T19:54:02.039Z,15860.69
2023-03-28T19:58:03.521Z,15895.47
2023-03-28T20:02:16.605Z,15875.00
2023-03-28T20:06:19.719Z,15858.66
2023-03-28T20:10:22.557Z,15864.78
2023-03-28T20:14:24.640Z,15858.66
2023-03-28T20:18:26.922Z,15870.91
2023-03-28T20:22:28.574Z,15846.38
2023-03-28T20:26:33.096Z,15870.91
2023-03-28T20:30:34.582Z,15842.28
2023-03-28T20:34:36.575Z,15799.34
2023-03-28T20:38:38.660Z,15848.44
2023-03-28T20:42:41.796Z,15854.56
2023-03-28T20:46:43.744Z,15819.81
2023-03-28T20:50:46.404Z,15838.22
2023-03-28T20:54:49.439Z,15825.94
2023-03-28T20:58:52.921Z,15846.38
2023-03-28T21:02:54.442Z,15842.28
2023-03-28T21:06:56.502Z,15850.47
2023-03-28T21:10:58.065Z,15858.66
2023-03-28T21:15:00.843Z,15830.03
2023-03-28T21:19:02.349Z,15862.75
2023-03-28T21:23:04.365Z,15827.97
2023-03-28T21:27:06.030Z,15834.13
2023-03-28T21:31:13.054Z,15819.81
2023-03-28T21:35:15.443Z,15852.53
2023-03-28T21:39:17.232Z,15830.03
2023-03-28T21:43:18.875Z,15805.50
2023-03-28T21:47:22.023Z,15842.28
2023-03-28T21:51:23.648Z,15864.78
2023-03-28T21:55:25.664Z,15854.56
2023-03-28T21:59:29.135Z,15817.75
2023-03-28T22:03:34.956Z,15850.47
2023-03-28T22:07:36.612Z,15838.22
2023-03-28T22:11:38.526Z,15846.38
2023-03-28T22:15:40.380Z,15875.00
2023-03-28T22:19:45.974Z,15834.13
2023-03-28T22:23:47.904Z,15844.34
2023-03-28T22:27:49.382Z,15864.78
2023-03-28T22:31:51.368Z,15856.59
2023-03-28T22:35:55.788Z,15830.03
2023-03-28T22:39:57.342Z,15823.91
2023-03-28T22:43:59.289Z,15850.47
2023-03-28T22:48:00.749Z,15842.28
2023-03-28T22:52:04.172Z,15875.00
2023-03-28T22:56:07.658Z,15813.66
2023-03-28T23:00:10.771Z,15842.28
2023-03-28T23:04:12.418Z,15852.53
2023-03-28T23:08:15.759Z,15854.56
2023-03-28T23:12:17.365Z,15858.66
2023-03-28T23:16:19.043Z,15842.28
2023-03-28T23:20:20.694Z,15850.47
2023-03-28T23:24:23.962Z,15852.53
2023-03-28T23:28:25.406Z,15834.13
2023-03-28T23:32:27.019Z,15827.97
2023-03-28T23:36:28.651Z,15848.44
2023-03-28T23:40:31.702Z,15805.50
2023-03-28T23:44:33.203Z,15797.31
2023-03-28T23:48:35.206Z,15850.47
2023-03-28T23:52:36.721Z,15854.56
2023-03-28T23:56:40.483Z,15815.72
